createdAt,value
2019-03-23T00:00:46.802Z,41.42
2019-03-23T00:03:14.152Z,41.48
2019-03-23T00:05:41.386Z,41.67
2019-03-23T00:08:08.287Z,41.69
2019-03-23T00:10:35.589Z,41.69
2019-03-23T00:13:02.498Z,41.63
2019-03-23T00:15:29.468Z,41.60
2019-03-23T00:17:56.747Z,41.47
2019-03-23T00:20:24.099Z,41.39
2019-03-23T00:22:52.112Z,41.53
2019-03-23T00:25:19.436Z,41.69
2019-03-23T00:27:46.387Z,41.74
2019-03-23T00:30:13.280Z,41.74
2019-03-23T00:32:40.233Z,41.65
2019-03-23T00:35:07.106Z,41.69
2019-03-23T00:37:35.285Z,41.71
2019-03-23T00:40:02.252Z,41.73
2019-03-23T00:42:29.583Z,41.69
2019-03-23T00:44:56.571Z,41.80
2019-03-23T00:47:23.861Z,41.85
2019-03-23T00:49:50.758Z,41.84
2019-03-23T00:52:17.726Z,41.80
2019-03-23T00:54:44.628Z,41.78
2019-03-23T00:57:11.512Z,41.75
2019-03-23T00:59:38.719Z,41.73
2019-03-23T01:02:05.675Z,41.74
2019-03-23T01:04:33.006Z,41.67
2019-03-23T01:06:59.961Z,41.69
2019-03-23T01:09:27.208Z,41.76
2019-03-23T01:11:54.073Z,41.90
2019-03-23T01:14:20.966Z,41.99
2019-03-23T01:16:48.245Z,42.06
2019-03-23T01:19:15.185Z,42.06
2019-03-23T01:21:42.450Z,42.07
2019-03-23T01:24:09.432Z,42.06
2019-03-23T01:26:36.373Z,42.01
2019-03-23T01:29:04.440Z,41.92
2019-03-23T01:31:31.324Z,41.97
2019-03-23T01:33:58.612Z,41.95
2019-03-23T01:36:25.868Z,41.89
2019-03-23T01:38:52.767Z,41.99
2019-03-23T01:41:19.704Z,42.00
2019-03-23T01:43:46.889Z,42.07
2019-03-23T01:46:13.782Z,42.32
2019-03-23T01:48:41.135Z,42.53
2019-03-23T01:51:08.084Z,42.64
2019-03-23T01:53:35.299Z,42.75
2019-03-23T01:56:02.546Z,42.85
2019-03-23T01:58:29.421Z,42.94
2019-03-23T02:00:56.752Z,42.99
2019-03-23T02:03:23.775Z,42.95
2019-03-23T02:05:51.054Z,42.93
2019-03-23T02:08:18.313Z,42.96
2019-03-23T02:10:45.216Z,42.86
2019-03-23T02:13:12.506Z,42.76
2019-03-23T02:15:39.756Z,42.72
2019-03-23T02:18:06.723Z,42.79
2019-03-23T02:20:33.949Z,42.90
2019-03-23T02:23:01.101Z,42.97
2019-03-23T02:25:28.017Z,43.05
2019-03-23T02:27:55.308Z,43.09
2019-03-23T02:30:22.560Z,43.09
2019-03-23T02:32:49.500Z,43.03
2019-03-23T02:35:16.684Z,42.93
2019-03-23T02:37:43.663Z,42.80
2019-03-23T02:40:10.588Z,42.80
2019-03-23T02:42:37.485Z,42.83
2019-03-23T02:45:04.421Z,42.86
2019-03-23T02:47:31.301Z,42.86
2019-03-23T02:49:58.208Z,42.92
2019-03-23T02:52:25.185Z,43.01
2019-03-23T02:54:52.168Z,42.97
2019-03-23T02:57:19.494Z,42.96
2019-03-23T02:59:47.494Z,43.00
2019-03-23T03:02:14.789Z,42.99
2019-03-23T03:04:41.700Z,43.06
2019-03-23T03:07:08.677Z,43.09
2019-03-23T03:09:35.615Z,42.98
2019-03-23T03:12:02.528Z,43.03
2019-03-23T03:14:29.826Z,43.09
2019-03-23T03:16:56.737Z,43.23
2019-03-23T03:19:24.038Z,43.26
2019-03-23T03:21:51.303Z,43.24
2019-03-23T03:24:18.550Z,43.25
2019-03-23T03:26:45.516Z,43.22
2019-03-23T03:29:12.423Z,43.08
2019-03-23T03:31:39.397Z,42.98
2019-03-23T03:34:06.361Z,42.89
2019-03-23T03:36:33.328Z,42.84
2019-03-23T03:39:00.615Z,42.82
2019-03-23T03:41:29.126Z,42.65
2019-03-23T03:43:56.088Z,42.53
2019-03-23T03:46:23.047Z,42.43
2019-03-23T03:48:50.001Z,42.45
2019-03-23T03:51:16.943Z,42.58
2019-03-23T03:53:44.131Z,42.62
2019-03-23T03:56:11.006Z,42.49
2019-03-23T03:58:37.946Z,42.55
2019-03-23T04:01:05.181Z,42.71
2019-03-23T04:03:32.140Z,42.75
2019-03-23T04:05:59.478Z,42.63
2019-03-23T04:08:26.394Z,42.61
2019-03-23T04:10:53.691Z,42.63
2019-03-23T04:13:20.652Z,42.62
2019-03-23T04:15:47.553Z,42.76
2019-03-23T04:18:14.517Z,42.94
2019-03-23T04:20:41.428Z,43.12
2019-03-23T04:23:08.412Z,43.20
2019-03-23T04:25:35.361Z,43.19
2019-03-23T04:28:02.370Z,43.19
2019-03-23T04:30:29.340Z,43.28
2019-03-23T04:32:56.290Z,43.34
2019-03-23T04:35:23.268Z,43.34
2019-03-23T04:37:50.245Z,43.45
2019-03-23T04:40:17.536Z,43.50
2019-03-23T04:42:44.780Z,43.48
2019-03-23T04:45:11.730Z,43.38
2019-03-23T04:47:38.656Z,43.37
2019-03-23T04:50:05.553Z,43.33
2019-03-23T04:52:32.504Z,43.25
2019-03-23T04:54:59.482Z,43.26
2019-03-23T04:57:26.500Z,43.20
2019-03-23T04:59:53.380Z,42.90
2019-03-23T05:02:20.250Z,42.80
2019-03-23T05:04:47.394Z,42.83
2019-03-23T05:07:14.552Z,42.96
2019-03-23T05:09:41.469Z,42.98
2019-03-23T05:12:08.436Z,42.96
2019-03-23T05:14:35.416Z,42.90
2019-03-23T05:17:02.644Z,42.73
2019-03-23T05:19:29.526Z,42.73
2019-03-23T05:21:56.743Z,42.82
2019-03-23T05:24:23.717Z,43.02
2019-03-23T05:26:50.612Z,43.11
2019-03-23T05:29:19.037Z,43.08
2019-03-23T05:31:45.901Z,43.13
2019-03-23T05:34:12.800Z,43.13
2019-03-23T05:36:39.691Z,43.15
2019-03-23T05:39:06.673Z,43.09
2019-03-23T05:41:34.653Z,42.96
2019-03-23T05:44:01.909Z,42.86
2019-03-23T05:46:28.878Z,43.00
2019-03-23T05:48:55.822Z,43.09
2019-03-23T05:51:23.173Z,43.16
2019-03-23T05:53:51.078Z,43.11
2019-03-23T05:56:18.993Z,42.94
2019-03-23T05:58:45.894Z,42.71
2019-03-23T06:01:12.844Z,42.44
2019-03-23T06:03:40.042Z,42.21
2019-03-23T06:06:06.925Z,41.94
2019-03-23T06:08:34.251Z,41.69
2019-03-23T06:11:02.297Z,41.38
2019-03-23T06:13:30.578Z,41.19
2019-03-23T06:15:57.586Z,41.00
2019-03-23T06:18:24.893Z,40.80
2019-03-23T06:20:52.126Z,40.53
2019-03-23T06:23:19.278Z,40.18
2019-03-23T06:25:46.550Z,39.90
2019-03-23T06:28:14.417Z,39.62
2019-03-23T06:30:41.401Z,39.34
2019-03-23T06:33:08.352Z,39.11
2019-03-23T06:35:35.306Z,38.90
2019-03-23T06:38:02.268Z,38.70
2019-03-23T06:40:29.173Z,38.47
2019-03-23T06:42:59.817Z,38.24
2019-03-23T06:45:24.664Z,38.05
2019-03-23T06:47:51.615Z,37.90
2019-03-23T06:50:18.989Z,37.71
2019-03-23T06:52:45.871Z,37.48
2019-03-23T06:55:13.217Z,37.28
2019-03-23T06:57:40.191Z,37.08
2019-03-23T07:00:07.574Z,36.88
2019-03-23T07:02:34.938Z,36.70
2019-03-23T07:05:01.893Z,36.46
2019-03-23T07:07:29.149Z,36.19
2019-03-23T07:09:56.388Z,36.01
2019-03-23T07:12:23.634Z,35.83
2019-03-23T07:14:50.540Z,35.63
2019-03-23T07:17:17.489Z,35.41
2019-03-23T07:19:44.681Z,35.07
2019-03-23T07:22:11.684Z,34.75
2019-03-23T07:24:38.644Z,34.48
2019-03-23T07:27:05.570Z,34.11
2019-03-23T07:29:32.538Z,33.93
2019-03-23T07:32:05.718Z,33.47
2019-03-23T07:34:28.611Z,33.14
2019-03-23T07:36:55.968Z,32.87
2019-03-23T07:39:28.004Z,32.43
2019-03-23T07:41:51.499Z,31.98
2019-03-23T07:44:18.862Z,31.48
2019-03-23T07:46:45.813Z,31.20
2019-03-23T07:49:12.969Z,30.85
2019-03-23T07:51:39.876Z,30.43
2019-03-23T07:54:06.846Z,30.21
2019-03-23T07:56:33.733Z,30.17
2019-03-23T07:59:01.033Z,30.29
2019-03-23T08:01:28.031Z,29.92
2019-03-23T08:03:54.905Z,29.81
2019-03-23T08:06:22.815Z,29.56
2019-03-23T08:08:49.715Z,29.70
2019-03-23T08:11:16.624Z,30.05
2019-03-23T08:13:44.593Z,30.22
2019-03-23T08:16:11.909Z,30.45
2019-03-23T08:18:39.146Z,30.55
2019-03-23T08:21:06.299Z,31.06
2019-03-23T08:23:33.564Z,31.53
2019-03-23T08:26:00.804Z,31.80
2019-03-23T08:28:27.713Z,32.02
2019-03-23T08:30:54.680Z,32.08
2019-03-23T08:33:21.622Z,32.23
2019-03-23T08:35:48.785Z,32.42
2019-03-23T08:38:15.739Z,32.73
2019-03-23T08:40:42.727Z,32.60
2019-03-23T08:43:10.105Z,32.67
2019-03-23T08:45:36.982Z,33.07
2019-03-23T08:48:03.926Z,33.19
2019-03-23T08:50:32.573Z,33.66
2019-03-23T08:52:59.659Z,34.02
2019-03-23T08:55:27.044Z,33.96
2019-03-23T08:57:53.948Z,33.71
2019-03-23T09:00:21.372Z,33.80
2019-03-23T09:02:48.320Z,33.90
2019-03-23T09:05:15.628Z,33.82
2019-03-23T09:07:44.005Z,33.94
2019-03-23T09:10:10.986Z,33.97
2019-03-23T09:12:37.947Z,34.08
2019-03-23T09:15:05.195Z,34.08
2019-03-23T09:17:32.118Z,34.12
2019-03-23T09:19:59.082Z,34.07
2019-03-23T09:22:26.024Z,34.15
2019-03-23T09:24:57.121Z,34.11
2019-03-23T09:27:21.811Z,33.91
2019-03-23T09:29:49.080Z,33.65
2019-03-23T09:32:16.329Z,33.56
2019-03-23T09:34:43.294Z,33.34
2019-03-23T09:37:10.257Z,33.11
2019-03-23T09:39:37.128Z,33.11
2019-03-23T09:42:04.004Z,33.12
2019-03-23T09:44:30.969Z,33.19
2019-03-23T09:46:57.925Z,33.01
2019-03-23T09:49:24.886Z,32.88
2019-03-23T09:51:52.193Z,32.90
2019-03-23T09:54:19.072Z,32.97
2019-03-23T09:56:45.962Z,32.73
2019-03-23T09:59:12.918Z,32.48
2019-03-23T10:01:39.865Z,32.32
2019-03-23T10:04:06.735Z,32.17
2019-03-23T10:06:33.674Z,32.18
2019-03-23T10:09:00.915Z,32.23
2019-03-23T10:11:29.712Z,31.96
2019-03-23T10:13:56.702Z,31.85
2019-03-23T10:16:23.916Z,31.80
2019-03-23T10:18:50.996Z,31.62
2019-03-23T10:21:17.936Z,31.43
2019-03-23T10:23:44.834Z,31.39
2019-03-23T10:26:11.700Z,31.42
2019-03-23T10:28:38.581Z,31.20
2019-03-23T10:31:05.785Z,31.10
2019-03-23T10:33:32.672Z,31.13
2019-03-23T10:36:00.866Z,31.18
2019-03-23T10:38:27.766Z,31.14
2019-03-23T10:40:54.650Z,31.00
2019-03-23T10:43:21.634Z,30.98
2019-03-23T10:45:48.557Z,30.88
2019-03-23T10:48:15.869Z,30.79
2019-03-23T10:50:43.086Z,30.89
2019-03-23T10:53:10.235Z,30.77
2019-03-23T10:55:37.132Z,30.65
2019-03-23T10:58:04.545Z,30.48
2019-03-23T11:00:31.790Z,30.55
2019-03-23T11:02:58.669Z,30.72
2019-03-23T11:05:25.541Z,30.67
2019-03-23T11:07:52.421Z,30.52
2019-03-23T11:10:20.729Z,30.50
2019-03-23T11:12:48.774Z,30.54
2019-03-23T11:15:16.030Z,30.42
2019-03-23T11:17:42.933Z,30.62
2019-03-23T11:20:10.256Z,30.61
2019-03-23T11:22:37.592Z,30.66
2019-03-23T11:25:04.594Z,30.61
2019-03-23T11:27:31.585Z,30.66
2019-03-23T11:29:58.605Z,30.72
2019-03-23T11:32:25.531Z,30.66
2019-03-23T11:34:52.866Z,30.75
2019-03-23T11:37:19.855Z,30.73
2019-03-23T11:39:47.249Z,30.71
2019-03-23T11:42:14.497Z,30.71
2019-03-23T11:44:41.422Z,30.80
2019-03-23T11:47:08.342Z,30.84
2019-03-23T11:49:35.338Z,30.84
2019-03-23T11:52:02.313Z,30.75
2019-03-23T11:54:29.657Z,30.64
2019-03-23T11:56:56.859Z,30.58
2019-03-23T11:59:23.764Z,30.63
2019-03-23T12:01:52.034Z,30.43
2019-03-23T12:04:19.672Z,30.40
2019-03-23T12:06:46.639Z,30.43
2019-03-23T12:09:13.515Z,30.34
2019-03-23T12:11:40.450Z,30.21
2019-03-23T12:14:07.335Z,30.20
2019-03-23T12:16:34.300Z,30.11
2019-03-23T12:19:01.542Z,30.02
2019-03-23T12:21:28.413Z,29.92
2019-03-23T12:23:55.623Z,29.92
2019-03-23T12:26:22.770Z,29.93
2019-03-23T12:28:49.675Z,29.88
2019-03-23T12:31:16.666Z,29.92
2019-03-23T12:33:43.615Z,29.93
2019-03-23T12:36:10.864Z,29.97
2019-03-23T12:38:37.763Z,30.05
2019-03-23T12:41:14.248Z,30.16
2019-03-23T12:43:33.863Z,30.03
2019-03-23T12:46:00.820Z,29.95
2019-03-23T12:48:28.830Z,29.96
2019-03-23T12:50:55.709Z,29.97
2019-03-23T12:53:22.596Z,30.07
2019-03-23T12:55:49.511Z,30.13
2019-03-23T12:58:16.458Z,30.14
2019-03-23T13:00:43.485Z,30.15
2019-03-23T13:03:10.353Z,30.24
2019-03-23T13:05:37.240Z,30.26
2019-03-23T13:08:04.136Z,30.22
2019-03-23T13:10:31.094Z,30.25
2019-03-23T13:12:58.483Z,30.22
2019-03-23T13:15:25.495Z,30.29
2019-03-23T13:17:52.480Z,30.34
2019-03-23T13:20:19.560Z,30.29
2019-03-23T13:22:46.934Z,30.28
2019-03-23T13:25:16.848Z,30.34
2019-03-23T13:27:46.166Z,30.49
2019-03-23T13:32:41.504Z,30.55
2019-03-23T13:35:08.837Z,30.59
2019-03-23T13:37:35.737Z,30.61
2019-03-23T13:40:02.814Z,30.61
2019-03-23T13:42:30.606Z,30.60
2019-03-23T13:44:58.128Z,30.66
2019-03-23T13:47:25.515Z,30.63
2019-03-23T13:49:52.467Z,30.63
2019-03-23T13:52:19.951Z,30.70
2019-03-23T13:54:47.152Z,30.62
2019-03-23T13:57:14.343Z,30.66
2019-03-23T13:59:41.276Z,30.59
2019-03-23T14:02:08.169Z,30.47
2019-03-23T14:04:36.452Z,30.45
2019-03-23T14:07:03.709Z,30.46
2019-03-23T14:09:31.150Z,30.40
2019-03-23T14:11:58.722Z,30.25
2019-03-23T14:14:26.350Z,30.11
2019-03-23T14:16:54.037Z,30.16
2019-03-23T14:19:20.985Z,30.12
2019-03-23T14:21:50.961Z,30.06
2019-03-23T14:24:17.829Z,30.07
2019-03-23T14:26:45.060Z,30.01
2019-03-23T14:29:12.024Z,29.94
2019-03-23T14:31:38.961Z,29.83
2019-03-23T14:34:05.854Z,29.67
2019-03-23T14:36:33.041Z,29.62
2019-03-23T14:39:00.273Z,29.67
2019-03-23T14:41:27.632Z,29.56
2019-03-23T14:43:56.238Z,29.60
2019-03-23T14:46:23.263Z,29.58
2019-03-23T14:48:50.280Z,29.57
2019-03-23T14:51:17.227Z,29.56
2019-03-23T14:53:44.203Z,29.64
2019-03-23T14:56:11.158Z,29.68
2019-03-23T14:58:38.489Z,29.61
2019-03-23T15:01:05.716Z,29.61
2019-03-23T15:03:33.044Z,29.44
2019-03-23T15:06:00.464Z,29.30
2019-03-23T15:08:27.490Z,29.27
2019-03-23T15:10:54.778Z,29.31
2019-03-23T15:13:21.734Z,29.33
2019-03-23T15:15:49.070Z,29.23
2019-03-23T15:18:16.352Z,29.17
2019-03-23T15:20:43.353Z,29.18
2019-03-23T15:23:10.451Z,29.21
2019-03-23T15:25:39.454Z,29.10
2019-03-23T15:28:05.997Z,29.08
2019-03-23T15:30:33.394Z,29.01
2019-03-23T15:33:00.637Z,29.10
2019-03-23T15:35:27.516Z,29.15
2019-03-23T15:37:54.514Z,29.01
2019-03-23T15:40:21.533Z,28.98
2019-03-23T15:42:48.430Z,28.96
2019-03-23T15:45:15.297Z,28.89
2019-03-23T15:47:42.221Z,28.90
2019-03-23T15:50:09.490Z,28.94
2019-03-23T15:52:36.724Z,29.03
2019-03-23T15:55:03.609Z,28.88
2019-03-23T15:57:31.564Z,28.85
2019-03-23T15:59:58.498Z,28.80
2019-03-23T16:02:25.741Z,28.79
2019-03-23T16:04:52.677Z,28.90
2019-03-23T16:09:48.113Z,28.86
2019-03-23T16:12:15.131Z,28.85
2019-03-23T16:14:42.323Z,28.77
2019-03-23T16:17:09.892Z,28.71
2019-03-23T16:19:40.235Z,28.62
2019-03-23T16:22:07.620Z,28.80
2019-03-23T16:24:35.633Z,29.20
2019-03-23T16:27:02.517Z,29.33
2019-03-23T16:29:29.774Z,29.55
2019-03-23T16:31:56.994Z,29.63
2019-03-23T16:34:23.937Z,29.77
2019-03-23T16:36:51.964Z,29.84
2019-03-23T16:39:18.853Z,29.90
2019-03-23T16:41:45.815Z,30.01
2019-03-23T16:44:13.028Z,30.18
2019-03-23T16:46:39.977Z,30.26
2019-03-23T16:49:07.341Z,30.45
2019-03-23T16:51:34.249Z,30.62
2019-03-23T16:54:03.593Z,30.75
2019-03-23T16:56:30.324Z,31.03
2019-03-23T16:58:57.659Z,31.20
2019-03-23T17:01:24.690Z,31.48
2019-03-23T17:03:52.668Z,31.91
2019-03-23T17:06:19.875Z,32.49
2019-03-23T17:08:48.826Z,32.87
2019-03-23T17:11:16.064Z,33.34
2019-03-23T17:13:43.418Z,33.82
2019-03-23T17:16:10.291Z,34.14
2019-03-23T17:18:37.573Z,34.50
2019-03-23T17:21:08.261Z,34.74
2019-03-23T17:23:35.196Z,34.99
2019-03-23T17:26:02.086Z,35.22
2019-03-23T17:28:29.417Z,35.20
2019-03-23T17:30:56.333Z,35.34
2019-03-23T17:33:23.363Z,35.43
2019-03-23T17:35:50.291Z,35.54
2019-03-23T17:38:17.909Z,35.55
2019-03-23T17:40:45.475Z,35.56
2019-03-23T17:43:16.931Z,35.52
2019-03-23T17:45:44.013Z,35.45
2019-03-23T17:48:11.856Z,35.24
2019-03-23T17:50:46.852Z,35.11
2019-03-23T17:53:13.964Z,34.86
2019-03-23T17:55:41.019Z,34.79
2019-03-23T17:58:07.992Z,34.69
2019-03-23T18:00:35.696Z,34.52
2019-03-23T18:03:02.947Z,34.23
2019-03-23T18:05:29.889Z,33.81
2019-03-23T18:07:56.937Z,33.68
2019-03-23T18:10:24.312Z,33.78
2019-03-23T18:12:51.269Z,33.49
2019-03-23T18:15:18.592Z,33.10
2019-03-23T18:17:45.585Z,33.08
2019-03-23T18:20:12.797Z,33.07
2019-03-23T18:22:39.775Z,32.90
2019-03-23T18:25:06.995Z,32.85
2019-03-23T18:27:34.382Z,33.00
2019-03-23T18:30:01.595Z,32.91
2019-03-23T18:32:30.498Z,32.83
2019-03-23T18:34:57.745Z,32.65
2019-03-23T18:37:24.989Z,32.91
2019-03-23T18:39:52.240Z,32.80
2019-03-23T18:42:19.508Z,33.19
2019-03-23T18:44:46.443Z,33.44
2019-03-23T18:47:13.590Z,33.49
2019-03-23T18:49:40.512Z,33.61
2019-03-23T18:52:08.828Z,33.50
2019-03-23T18:54:35.810Z,33.68
2019-03-23T18:57:03.240Z,33.78
2019-03-23T18:59:30.196Z,33.75
2019-03-23T19:01:57.068Z,33.60
2019-03-23T19:04:24.524Z,33.57
2019-03-23T19:06:51.832Z,33.48
2019-03-23T19:09:18.778Z,33.58
2019-03-23T19:11:46.022Z,33.72
2019-03-23T19:14:12.970Z,33.84
2019-03-23T19:16:41.157Z,34.03
2019-03-23T19:19:08.438Z,34.12
2019-03-23T19:21:35.411Z,34.40
2019-03-23T19:24:02.361Z,34.48
2019-03-23T19:26:29.762Z,34.69
2019-03-23T19:28:56.814Z,34.75
2019-03-23T19:31:24.271Z,35.57
2019-03-23T19:33:51.922Z,36.03
2019-03-23T19:36:19.308Z,35.72
2019-03-23T19:38:46.299Z,35.56
2019-03-23T19:41:13.253Z,35.31
2019-03-23T19:43:48.234Z,35.18
2019-03-23T19:46:09.248Z,34.96
2019-03-23T19:48:36.446Z,34.73
2019-03-23T19:51:03.879Z,34.46
2019-03-23T19:53:30.999Z,34.37
2019-03-23T19:55:57.862Z,34.38
2019-03-23T19:58:24.830Z,34.42
2019-03-23T20:00:51.784Z,34.50
2019-03-23T20:03:19.283Z,34.58
2019-03-23T20:05:46.857Z,34.67
2019-03-23T20:08:14.051Z,34.76
2019-03-23T20:10:41.103Z,34.85
2019-03-23T20:13:08.045Z,34.90
2019-03-23T20:15:35.011Z,34.98
2019-03-23T20:18:02.370Z,35.07
2019-03-23T20:20:29.321Z,35.14
2019-03-23T20:22:56.282Z,35.24
2019-03-23T20:25:23.345Z,35.28
2019-03-23T20:27:50.297Z,35.33
2019-03-23T20:30:17.601Z,35.39
2019-03-23T20:32:44.611Z,35.54
2019-03-23T20:35:11.591Z,35.63
2019-03-23T20:37:38.717Z,35.66
2019-03-23T20:40:05.681Z,35.74
2019-03-23T20:42:32.967Z,35.82
2019-03-23T20:45:00.323Z,35.81
2019-03-23T20:47:27.537Z,35.82
2019-03-23T20:49:54.443Z,35.88
2019-03-23T20:52:21.656Z,35.98
2019-03-23T20:54:48.641Z,36.10
2019-03-23T20:57:23.817Z,36.22
2019-03-23T20:59:45.271Z,36.35
2019-03-23T21:02:12.194Z,36.51
2019-03-23T21:04:39.655Z,36.69
2019-03-23T21:07:06.636Z,36.79
2019-03-23T21:09:33.961Z,36.87
2019-03-23T21:12:01.000Z,36.98
2019-03-23T21:14:28.286Z,37.05
2019-03-23T21:16:55.294Z,37.13
2019-03-23T21:19:22.220Z,37.21
2019-03-23T21:21:49.289Z,37.26
2019-03-23T21:24:16.263Z,37.32
2019-03-23T21:26:44.276Z,37.45
2019-03-23T21:29:11.218Z,37.72
2019-03-23T21:31:38.083Z,37.85
2019-03-23T21:34:04.969Z,37.93
2019-03-23T21:36:32.214Z,38.13
2019-03-23T21:38:59.182Z,38.21
2019-03-23T21:41:26.618Z,38.20
2019-03-23T21:43:53.550Z,38.24
2019-03-23T21:46:20.443Z,38.37
2019-03-23T21:48:47.765Z,38.51
2019-03-23T21:51:14.648Z,38.55
2019-03-23T21:53:42.161Z,38.56
2019-03-23T21:56:09.070Z,38.62
2019-03-23T21:58:36.029Z,38.62
2019-03-23T22:01:03.206Z,38.68
2019-03-23T22:03:30.564Z,38.74
2019-03-23T22:05:57.450Z,38.89
2019-03-23T22:08:24.349Z,38.94
2019-03-23T22:10:51.601Z,38.92
2019-03-23T22:13:18.940Z,38.97
2019-03-23T22:15:46.207Z,38.97
2019-03-23T22:18:13.559Z,38.88
2019-03-23T22:20:40.812Z,38.85
2019-03-23T22:23:08.057Z,38.85
2019-03-23T22:25:35.427Z,38.88
2019-03-23T22:28:02.395Z,38.91
2019-03-23T22:30:29.724Z,38.91
2019-03-23T22:32:56.709Z,38.88
2019-03-23T22:35:23.922Z,39.00
2019-03-23T22:37:51.171Z,39.12
2019-03-23T22:40:18.146Z,39.11
2019-03-23T22:42:45.092Z,39.06
2019-03-23T22:45:12.318Z,38.98
2019-03-23T22:47:40.330Z,38.86
2019-03-23T22:50:07.248Z,38.80
2019-03-23T22:52:34.183Z,38.94
2019-03-23T22:55:01.073Z,39.04
2019-03-23T22:57:28.035Z,39.07
2019-03-23T22:59:55.061Z,39.07
2019-03-23T23:02:22.273Z,39.00
2019-03-23T23:04:49.182Z,39.02
2019-03-23T23:07:16.483Z,39.07
2019-03-23T23:09:43.441Z,39.21
2019-03-23T23:12:10.397Z,39.22
2019-03-23T23:14:40.088Z,39.26
2019-03-23T23:17:07.309Z,39.25
2019-03-23T23:19:34.240Z,39.25
2019-03-23T23:22:01.139Z,39.27
2019-03-23T23:24:28.561Z,39.36
2019-03-23T23:26:55.436Z,39.40
2019-03-23T23:29:22.350Z,39.41
2019-03-23T23:31:49.606Z,39.30
2019-03-23T23:34:16.536Z,39.28
2019-03-23T23:36:43.708Z,39.34
2019-03-23T23:39:10.577Z,39.39
2019-03-23T23:41:37.797Z,39.30
2019-03-23T23:44:05.082Z,39.20
2019-03-23T23:46:32.413Z,39.25
2019-03-23T23:48:59.661Z,39.25
2019-03-23T23:51:26.556Z,39.24
2019-03-23T23:53:53.493Z,39.17
2019-03-23T23:56:20.389Z,39.10
2019-03-23T23:58:47.664Z,39.03
